createdAt,value
2023-04-26T00:00:04.580Z,80.44
2023-04-26T00:01:04.572Z,80.23
2023-04-26T00:02:04.552Z,80.33
2023-04-26T00:03:04.847Z,80.85
2023-04-26T00:04:04.883Z,81.16
2023-04-26T00:05:04.694Z,81.20
2023-04-26T00:06:04.516Z,80.96
2023-04-26T00:07:04.486Z,80.89
2023-04-26T00:08:04.515Z,80.89
2023-04-26T00:09:04.832Z,81.10
2023-04-26T00:10:04.462Z,81.10
2023-04-26T00:11:04.448Z,81.10
2023-04-26T00:12:04.427Z,81.24
2023-04-26T00:13:04.412Z,81.24
2023-04-26T00:14:04.414Z,81.72
2023-04-26T00:15:04.398Z,82.14
2023-04-26T00:16:04.383Z,82.24
2023-04-26T00:17:04.364Z,82.34
2023-04-26T00:18:04.452Z,82.24
2023-04-26T00:19:04.367Z,82.03
2023-04-26T00:20:04.317Z,81.82
2023-04-26T00:21:04.315Z,81.62
2023-04-26T00:22:04.286Z,81.41
2023-04-26T00:23:04.305Z,81.41
2023-04-26T00:24:04.277Z,81.20
2023-04-26T00:25:04.256Z,81.10
2023-04-26T00:26:04.253Z,80.79
2023-04-26T00:27:04.234Z,80.58
2023-04-26T00:28:04.320Z,80.52
2023-04-26T00:29:04.292Z,80.83
2023-04-26T00:30:04.185Z,80.93
2023-04-26T00:31:04.212Z,81.24
2023-04-26T00:32:04.479Z,81.56
2023-04-26T00:33:04.208Z,81.80
2023-04-26T00:34:04.156Z,81.70
2023-04-26T00:35:04.128Z,81.90
2023-04-26T00:36:04.225Z,82.21
2023-04-26T00:37:04.103Z,82.73
2023-04-26T00:38:04.087Z,82.80
2023-04-26T00:39:04.101Z,82.70
2023-04-26T00:40:04.058Z,82.49
2023-04-26T00:41:04.045Z,82.39
2023-04-26T00:42:04.034Z,82.39
2023-04-26T00:43:04.021Z,82.39
2023-04-26T00:44:04.048Z,82.39
2023-04-26T00:45:03.995Z,82.24
2023-04-26T00:46:04.029Z,82.24
2023-04-26T00:47:03.967Z,82.14
2023-04-26T00:48:03.985Z,82.24
2023-04-26T00:49:03.958Z,82.24
2023-04-26T00:50:03.925Z,82.28
2023-04-26T00:51:03.915Z,82.28
2023-04-26T00:52:03.885Z,82.07
2023-04-26T00:53:03.894Z,81.97
2023-04-26T00:54:03.881Z,82.18
2023-04-26T00:55:03.845Z,82.28
2023-04-26T00:56:03.891Z,82.18
2023-04-26T00:57:03.837Z,82.07
2023-04-26T00:58:03.811Z,82.01
2023-04-26T00:59:03.844Z,82.42
2023-04-26T01:00:03.794Z,82.73
2023-04-26T01:01:03.843Z,83.04
2023-04-26T01:02:03.806Z,83.11
2023-04-26T01:03:03.901Z,83.15
2023-04-26T01:04:03.912Z,82.94
2023-04-26T01:05:03.729Z,82.84
2023-04-26T01:06:03.717Z,82.84
2023-04-26T01:07:03.715Z,82.94
2023-04-26T01:08:03.688Z,82.73
2023-04-26T01:09:03.690Z,82.53
2023-04-26T01:10:03.670Z,82.53
2023-04-26T01:11:03.653Z,82.53
2023-04-26T01:12:03.639Z,82.32
2023-04-26T01:13:03.635Z,82.21
2023-04-26T01:14:03.622Z,82.11
2023-04-26T01:15:03.600Z,82.32
2023-04-26T01:16:03.577Z,82.53
2023-04-26T01:17:03.629Z,82.63
2023-04-26T01:18:03.620Z,82.53
2023-04-26T01:19:03.560Z,82.42
2023-04-26T01:20:03.524Z,82.42
2023-04-26T01:21:03.657Z,82.35
2023-04-26T01:22:03.509Z,82.15
2023-04-26T01:23:03.492Z,82.04
2023-04-26T01:24:03.483Z,81.94
2023-04-26T01:25:03.491Z,81.52
2023-04-26T01:26:03.440Z,81.04
2023-04-26T01:27:03.442Z,81.25
2023-04-26T01:28:03.421Z,81.67
2023-04-26T01:29:03.430Z,81.87
2023-04-26T01:30:03.408Z,81.87
2023-04-26T01:31:03.405Z,81.67
2023-04-26T01:32:03.367Z,81.87
2023-04-26T01:33:03.382Z,82.18
2023-04-26T01:34:03.364Z,82.60
2023-04-26T01:35:03.323Z,82.70
2023-04-26T01:36:03.312Z,82.70
2023-04-26T01:37:03.322Z,82.70
2023-04-26T01:38:03.289Z,82.39
2023-04-26T01:39:03.324Z,82.50
2023-04-26T01:40:03.260Z,82.70
2023-04-26T01:41:03.240Z,82.81
2023-04-26T01:42:03.234Z,82.91
2023-04-26T01:43:03.277Z,82.91
2023-04-26T01:44:03.226Z,82.91
2023-04-26T01:45:03.200Z,82.91
2023-04-26T01:46:03.225Z,83.12
2023-04-26T01:47:03.218Z,83.33
2023-04-26T01:48:03.231Z,83.43
2023-04-26T01:49:03.156Z,83.53
2023-04-26T01:50:03.123Z,83.43
2023-04-26T01:51:03.137Z,83.43
2023-04-26T01:52:03.100Z,83.53
2023-04-26T01:53:03.084Z,83.53
2023-04-26T01:54:03.110Z,83.43
2023-04-26T01:55:03.059Z,83.33
2023-04-26T01:56:03.040Z,83.16
2023-04-26T01:57:03.028Z,82.95
2023-04-26T01:58:03.024Z,83.16
2023-04-26T01:59:03.017Z,83.05
2023-04-26T02:00:02.990Z,82.84
2023-04-26T02:01:02.975Z,82.32
2023-04-26T02:02:03.204Z,82.12
2023-04-26T02:03:03.042Z,82.12
2023-04-26T02:04:02.941Z,82.22
2023-04-26T02:05:02.953Z,82.43
2023-04-26T02:06:02.908Z,82.57
2023-04-26T02:07:02.900Z,83.20
2023-04-26T02:08:02.885Z,83.30
2023-04-26T02:09:02.869Z,83.30
2023-04-26T02:10:02.893Z,83.40
2023-04-26T02:11:02.846Z,83.51
2023-04-26T02:12:02.835Z,83.51
2023-04-26T02:13:02.820Z,83.51
2023-04-26T02:14:02.811Z,83.09
2023-04-26T02:15:02.817Z,82.78
2023-04-26T02:16:02.829Z,82.68
2023-04-26T02:17:02.770Z,82.99
2023-04-26T02:18:02.791Z,82.99
2023-04-26T02:19:02.744Z,82.99
2023-04-26T02:20:02.739Z,82.99
2023-04-26T02:21:02.722Z,83.09
2023-04-26T02:22:02.704Z,82.99
2023-04-26T02:23:02.679Z,82.78
2023-04-26T02:24:02.671Z,82.57
2023-04-26T02:25:02.688Z,82.26
2023-04-26T02:26:02.651Z,82.57
2023-04-26T02:27:02.644Z,82.68
2023-04-26T02:28:02.626Z,82.78
2023-04-26T02:29:02.608Z,82.89
2023-04-26T02:30:02.623Z,82.99
2023-04-26T02:31:02.592Z,82.99
2023-04-26T02:32:02.571Z,82.89
2023-04-26T02:33:02.633Z,83.13
2023-04-26T02:34:02.547Z,83.44
2023-04-26T02:35:02.554Z,83.54
2023-04-26T02:36:02.514Z,83.65
2023-04-26T02:37:02.499Z,83.82
2023-04-26T02:38:02.498Z,83.82
2023-04-26T02:39:02.472Z,83.82
2023-04-26T02:40:02.464Z,83.75
2023-04-26T02:41:02.434Z,83.75
2023-04-26T02:42:02.454Z,83.86
2023-04-26T02:43:02.414Z,84.17
2023-04-26T02:44:02.414Z,84.34
2023-04-26T02:45:02.392Z,84.23
2023-04-26T02:46:02.372Z,84.23
2023-04-26T02:47:02.450Z,84.34
2023-04-26T02:48:02.390Z,84.23
2023-04-26T02:49:02.332Z,83.92
2023-04-26T02:50:02.350Z,83.44
2023-04-26T02:51:02.303Z,83.34
2023-04-26T02:52:02.295Z,83.23
2023-04-26T02:53:02.290Z,83.48
2023-04-26T02:54:02.269Z,83.90
2023-04-26T02:55:02.264Z,84.31
2023-04-26T02:56:02.237Z,84.42
2023-04-26T02:57:02.233Z,84.52
2023-04-26T02:58:02.216Z,84.11
2023-04-26T02:59:02.190Z,83.94
2023-04-26T03:00:02.212Z,83.94
2023-04-26T03:01:02.226Z,84.25
2023-04-26T03:02:02.213Z,84.56
2023-04-26T03:03:02.364Z,84.87
2023-04-26T03:04:02.200Z,84.56
2023-04-26T03:05:02.179Z,84.66
2023-04-26T03:06:02.111Z,84.87
2023-04-26T03:07:02.094Z,85.08
2023-04-26T03:08:02.090Z,85.19
2023-04-26T03:09:02.068Z,85.19
2023-04-26T03:10:02.089Z,85.19
2023-04-26T03:11:02.060Z,85.19
2023-04-26T03:12:02.027Z,84.98
2023-04-26T03:13:02.074Z,84.63
2023-04-26T03:14:02.013Z,84.42
2023-04-26T03:15:02.004Z,84.31
2023-04-26T03:16:02.113Z,84.21
2023-04-26T03:17:02.009Z,84.14
2023-04-26T03:18:02.021Z,84.14
2023-04-26T03:19:02.057Z,84.14
2023-04-26T03:20:02.731Z,84.14
2023-04-26T03:21:01.920Z,84.35
2023-04-26T03:22:01.913Z,84.45
2023-04-26T03:23:02.014Z,84.56
2023-04-26T03:24:01.878Z,84.81
2023-04-26T03:25:01.858Z,85.12
2023-04-26T03:26:01.852Z,85.39
2023-04-26T03:27:01.861Z,85.50
2023-04-26T03:28:01.810Z,85.60
2023-04-26T03:29:01.805Z,85.50
2023-04-26T03:30:01.785Z,85.29
2023-04-26T03:31:01.834Z,85.08
2023-04-26T03:32:01.792Z,84.98
2023-04-26T03:33:01.755Z,84.87
2023-04-26T03:34:01.728Z,84.87
2023-04-26T03:35:01.727Z,84.87
2023-04-26T03:36:01.717Z,84.77
2023-04-26T03:37:01.718Z,84.66
2023-04-26T03:38:01.724Z,84.56
2023-04-26T03:39:01.684Z,84.45
2023-04-26T03:40:01.664Z,84.14
2023-04-26T03:41:01.666Z,83.83
2023-04-26T03:42:01.622Z,83.94
2023-04-26T03:43:01.625Z,84.14
2023-04-26T03:44:01.614Z,84.25
2023-04-26T03:45:01.606Z,84.35
2023-04-26T03:46:01.655Z,84.35
2023-04-26T03:47:01.582Z,84.56
2023-04-26T03:48:01.599Z,84.66
2023-04-26T03:49:01.565Z,84.66
2023-04-26T03:50:01.546Z,84.56
2023-04-26T03:51:01.510Z,84.66
2023-04-26T03:52:01.504Z,84.45
2023-04-26T03:53:01.512Z,84.35
2023-04-26T03:54:01.484Z,84.08
2023-04-26T03:55:01.489Z,83.56
2023-04-26T03:56:01.448Z,83.56
2023-04-26T03:57:01.441Z,83.76
2023-04-26T03:58:01.420Z,83.97
2023-04-26T03:59:01.422Z,84.28
2023-04-26T04:00:01.420Z,84.50
2023-04-26T04:01:01.419Z,84.60
2023-04-26T04:02:01.409Z,84.70
2023-04-26T04:03:01.535Z,84.60
2023-04-26T04:04:01.655Z,84.50
2023-04-26T04:05:01.522Z,84.39
2023-04-26T04:06:01.326Z,83.91
2023-04-26T04:07:01.311Z,83.28
2023-04-26T04:08:01.285Z,83.80
2023-04-26T04:09:01.283Z,84.22
2023-04-26T04:10:01.254Z,84.33
2023-04-26T04:11:01.267Z,84.53
2023-04-26T04:12:01.224Z,84.43
2023-04-26T04:13:01.235Z,84.22
2023-04-26T04:14:01.206Z,84.05
2023-04-26T04:15:01.360Z,83.74
2023-04-26T04:16:01.236Z,83.84
2023-04-26T04:17:01.177Z,83.95
2023-04-26T04:18:01.186Z,84.26
2023-04-26T04:19:01.136Z,84.53
2023-04-26T04:20:01.134Z,84.43
2023-04-26T04:21:01.131Z,84.33
2023-04-26T04:22:01.149Z,84.22
2023-04-26T04:23:01.072Z,84.12
2023-04-26T04:24:01.070Z,83.70
2023-04-26T04:25:01.055Z,83.80
2023-04-26T04:26:01.063Z,83.39
2023-04-26T04:27:01.044Z,83.07
2023-04-26T04:28:01.014Z,83.01
2023-04-26T04:29:01.010Z,83.22
2023-04-26T04:30:00.997Z,83.32
2023-04-26T04:31:01.045Z,83.84
2023-04-26T04:32:00.957Z,84.26
2023-04-26T04:33:01.057Z,84.47
2023-04-26T04:34:00.938Z,84.36
2023-04-26T04:35:00.965Z,84.26
2023-04-26T04:36:00.910Z,84.36
2023-04-26T04:37:00.921Z,84.67
2023-04-26T04:38:00.874Z,84.67
2023-04-26T04:39:00.883Z,84.26
2023-04-26T04:40:00.864Z,84.22
2023-04-26T04:41:00.909Z,84.74
2023-04-26T04:42:00.839Z,85.05
2023-04-26T04:43:00.819Z,85.05
2023-04-26T04:44:00.803Z,85.05
2023-04-26T04:45:00.822Z,85.16
2023-04-26T04:46:00.874Z,85.36
2023-04-26T04:47:00.826Z,85.36
2023-04-26T04:48:00.830Z,85.47
2023-04-26T04:49:00.753Z,85.68
2023-04-26T04:50:00.746Z,85.85
2023-04-26T04:51:00.736Z,85.96
2023-04-26T04:52:00.711Z,86.06
2023-04-26T04:53:00.697Z,86.06
2023-04-26T04:54:00.686Z,85.96
2023-04-26T04:55:00.692Z,85.96
2023-04-26T04:56:00.651Z,85.96
2023-04-26T04:57:00.653Z,85.96
2023-04-26T04:58:00.660Z,85.85
2023-04-26T04:59:00.636Z,85.74
2023-04-26T05:00:00.633Z,85.74
2023-04-26T05:01:00.597Z,86.65
2023-04-26T05:02:00.603Z,86.85
2023-04-26T05:03:00.779Z,86.81
2023-04-26T05:04:00.809Z,87.02
2023-04-26T05:05:00.626Z,86.57
2023-04-26T05:06:00.536Z,85.42
2023-04-26T05:07:00.508Z,84.80
2023-04-26T05:08:00.502Z,88.60
2023-04-26T05:09:00.504Z,86.83
2023-04-26T05:10:00.529Z,85.55
2023-04-26T05:11:00.477Z,84.61
2023-04-26T05:12:00.516Z,83.47
2023-04-26T05:13:00.444Z,83.40
2023-04-26T05:14:00.442Z,83.72
2023-04-26T05:15:00.464Z,84.13
2023-04-26T05:16:00.441Z,84.34
2023-04-26T05:17:00.379Z,84.34
2023-04-26T05:18:07.678Z,84.48
2023-04-26T05:19:00.361Z,84.69
2023-04-26T05:20:00.359Z,84.80
2023-04-26T05:21:00.329Z,85.11
2023-04-26T05:22:00.314Z,85.28
2023-04-26T05:23:00.315Z,85.28
2023-04-26T05:24:00.329Z,85.17
2023-04-26T05:25:00.303Z,85.06
2023-04-26T05:26:00.349Z,84.86
2023-04-26T05:27:00.264Z,84.65
2023-04-26T05:28:00.256Z,84.55
2023-04-26T05:29:00.235Z,84.51
2023-04-26T05:30:00.220Z,84.41
2023-04-26T05:31:00.303Z,84.30
2023-04-26T05:32:00.464Z,84.30
2023-04-26T05:33:00.254Z,84.41
2023-04-26T05:34:00.172Z,84.61
2023-04-26T05:35:00.157Z,84.61
2023-04-26T05:36:00.137Z,84.72
2023-04-26T05:37:00.126Z,84.61
2023-04-26T05:38:00.205Z,84.72
2023-04-26T05:39:00.141Z,84.72
2023-04-26T05:40:00.138Z,84.72
2023-04-26T05:41:00.099Z,84.61
2023-04-26T05:42:00.068Z,84.41
2023-04-26T05:43:00.044Z,84.30
2023-04-26T05:44:00.037Z,84.20
2023-04-26T05:45:00.022Z,84.16
2023-04-26T05:46:00.100Z,84.16
2023-04-26T05:47:00.025Z,84.05
2023-04-26T05:48:00.036Z,84.05
2023-04-26T05:48:59.967Z,84.05
2023-04-26T05:49:59.941Z,84.27
2023-04-26T05:50:59.982Z,84.47
2023-04-26T05:51:59.925Z,84.58
2023-04-26T05:52:59.926Z,84.58
2023-04-26T05:53:59.890Z,84.47
2023-04-26T05:54:59.988Z,84.27
2023-04-26T05:55:59.880Z,84.16
2023-04-26T05:56:59.935Z,84.12
2023-04-26T05:57:59.850Z,84.01
2023-04-26T05:58:59.839Z,83.91
2023-04-26T05:59:59.817Z,84.01
2023-04-26T06:00:59.836Z,83.91
2023-04-26T06:01:59.815Z,84.01
2023-04-26T06:02:59.916Z,84.12
2023-04-26T06:04:01.182Z,83.67
2023-04-26T06:04:59.901Z,83.56
2023-04-26T06:05:59.841Z,83.25
2023-04-26T06:06:59.721Z,82.94
2023-04-26T06:07:59.714Z,82.73
2023-04-26T06:08:59.691Z,82.84
2023-04-26T06:09:59.680Z,82.94
2023-04-26T06:10:59.726Z,82.94
2023-04-26T06:11:59.645Z,83.04
2023-04-26T06:12:59.646Z,83.32
2023-04-26T06:13:59.631Z,83.63
2023-04-26T06:14:59.620Z,83.63
2023-04-26T06:15:59.609Z,83.53
2023-04-26T06:16:59.631Z,83.42
2023-04-26T06:17:59.685Z,83.42
2023-04-26T06:18:59.559Z,83.28
2023-04-26T06:19:59.533Z,82.97
2023-04-26T06:20:59.559Z,82.76
2023-04-26T06:21:59.511Z,82.65
2023-04-26T06:22:59.493Z,82.86
2023-04-26T06:23:59.487Z,82.97
2023-04-26T06:24:59.500Z,82.76
2023-04-26T06:25:59.485Z,82.86
2023-04-26T06:26:59.452Z,82.97
2023-04-26T06:27:59.443Z,82.97
2023-04-26T06:28:59.431Z,82.82
2023-04-26T06:29:59.410Z,82.72
2023-04-26T06:30:59.468Z,82.51
2023-04-26T06:31:59.400Z,82.20
2023-04-26T06:32:59.426Z,82.20
2023-04-26T06:33:59.367Z,82.51
2023-04-26T06:34:59.356Z,82.82
2023-04-26T06:35:59.333Z,82.93
2023-04-26T06:36:59.332Z,82.82
2023-04-26T06:37:59.292Z,83.00
2023-04-26T06:38:59.299Z,83.10
2023-04-26T06:39:59.277Z,83.10
2023-04-26T06:40:59.409Z,82.89
2023-04-26T06:41:59.248Z,82.58
2023-04-26T06:42:59.242Z,82.79
2023-04-26T06:43:59.223Z,83.10
2023-04-26T06:44:59.229Z,83.31
2023-04-26T06:45:59.231Z,83.00
2023-04-26T06:46:59.195Z,82.58
2023-04-26T06:47:59.226Z,82.17
2023-04-26T06:48:59.164Z,81.92
2023-04-26T06:49:59.139Z,81.82
2023-04-26T06:50:59.137Z,81.82
2023-04-26T06:51:59.132Z,81.82
2023-04-26T06:52:59.108Z,81.82
2023-04-26T06:53:59.145Z,81.82
2023-04-26T06:54:59.084Z,81.99
2023-04-26T06:55:59.057Z,81.99
2023-04-26T06:57:01.237Z,81.57
2023-04-26T06:57:59.048Z,81.47
2023-04-26T06:58:59.033Z,81.47
2023-04-26T06:59:59.014Z,81.37
2023-04-26T07:00:58.998Z,80.85
2023-04-26T07:01:59.041Z,80.33
2023-04-26T07:02:59.137Z,79.91
2023-04-26T07:03:59.343Z,80.02
2023-04-26T07:04:59.077Z,80.12
2023-04-26T07:05:58.923Z,80.22
2023-04-26T07:06:58.961Z,80.54
2023-04-26T07:07:58.906Z,80.74
2023-04-26T07:08:59.498Z,80.40
2023-04-26T07:09:58.904Z,80.50
2023-04-26T07:10:58.898Z,80.50
2023-04-26T07:11:58.873Z,80.60
2023-04-26T07:12:58.843Z,80.57
2023-04-26T07:13:58.829Z,80.46
2023-04-26T07:14:58.822Z,80.36
2023-04-26T07:15:58.834Z,80.36
2023-04-26T07:16:58.825Z,80.01
2023-04-26T07:17:58.802Z,79.49
2023-04-26T07:18:58.752Z,79.39
2023-04-26T07:19:58.742Z,79.70
2023-04-26T07:20:58.739Z,79.91
2023-04-26T07:21:58.736Z,79.66
2023-04-26T07:22:58.718Z,79.56
2023-04-26T07:23:58.694Z,79.87
2023-04-26T07:24:58.686Z,80.08
2023-04-26T07:25:58.677Z,79.97
2023-04-26T07:26:58.668Z,80.04
2023-04-26T07:27:58.626Z,79.52
2023-04-26T07:28:58.625Z,79.32
2023-04-26T07:29:58.608Z,79.32
2023-04-26T07:30:58.599Z,79.42
2023-04-26T07:31:58.624Z,79.22
2023-04-26T07:32:58.635Z,79.32
2023-04-26T07:33:58.638Z,79.63
2023-04-26T07:34:58.543Z,79.32
2023-04-26T07:35:58.554Z,78.97
2023-04-26T07:36:58.543Z,79.38
2023-04-26T07:37:58.516Z,79.38
2023-04-26T07:38:58.487Z,79.08
2023-04-26T07:39:58.491Z,78.97
2023-04-26T07:40:58.483Z,78.77
2023-04-26T07:41:58.487Z,78.83
2023-04-26T07:42:58.442Z,78.63
2023-04-26T07:43:58.436Z,78.73
2023-04-26T07:44:58.434Z,78.01
2023-04-26T07:45:58.508Z,74.98
2023-04-26T07:46:58.399Z,74.67
2023-04-26T07:47:58.428Z,74.57
2023-04-26T07:48:58.365Z,74.57
2023-04-26T07:49:58.363Z,73.43
2023-04-26T07:50:58.347Z,72.88
2023-04-26T07:51:58.340Z,72.67
2023-04-26T07:52:58.345Z,72.27
2023-04-26T07:53:58.322Z,72.06
2023-04-26T07:54:58.320Z,72.06
2023-04-26T07:55:58.275Z,72.33
2023-04-26T07:56:58.316Z,72.23
2023-04-26T07:57:58.274Z,71.72
2023-04-26T07:58:58.227Z,71.82
2023-04-26T07:59:58.229Z,72.03
2023-04-26T08:00:58.215Z,72.09
2023-04-26T08:01:58.239Z,72.61
2023-04-26T08:02:58.578Z,71.99
2023-04-26T08:03:58.476Z,71.86
2023-04-26T08:04:58.453Z,70.00
2023-04-26T08:05:58.308Z,69.38
2023-04-26T08:06:58.176Z,69.28
2023-04-26T08:07:58.115Z,69.79
2023-04-26T08:08:58.110Z,70.72
2023-04-26T08:09:58.099Z,69.79
2023-04-26T08:10:58.105Z,70.00
2023-04-26T08:11:58.226Z,70.72
2023-04-26T08:12:58.101Z,70.42
2023-04-26T08:13:58.038Z,69.46
2023-04-26T08:14:58.014Z,69.46
2023-04-26T08:15:58.022Z,69.76
2023-04-26T08:16:58.037Z,69.66
2023-04-26T08:17:58.032Z,70.07
2023-04-26T08:18:57.972Z,68.32
2023-04-26T08:19:57.979Z,67.63
2023-04-26T08:20:57.934Z,67.33
2023-04-26T08:21:57.957Z,67.43
2023-04-26T08:22:57.942Z,66.81
2023-04-26T08:23:57.882Z,63.82
2023-04-26T08:24:57.879Z,62.28
2023-04-26T08:25:57.869Z,61.35
2023-04-26T08:26:57.879Z,61.77
2023-04-26T08:27:57.851Z,62.79
2023-04-26T08:28:57.849Z,61.77
2023-04-26T08:29:57.822Z,63.00
2023-04-26T08:30:57.872Z,62.79
2023-04-26T08:31:57.805Z,63.00
2023-04-26T08:32:57.855Z,63.79
2023-04-26T08:33:57.776Z,64.11
2023-04-26T08:34:57.756Z,63.90
2023-04-26T08:35:57.745Z,63.35
2023-04-26T08:36:57.746Z,63.67
2023-04-26T08:37:57.734Z,62.12
2023-04-26T08:38:57.762Z,61.09
2023-04-26T08:39:57.700Z,61.99
2023-04-26T08:40:57.661Z,63.02
2023-04-26T08:41:57.669Z,61.79
2023-04-26T08:42:57.637Z,62.30
2023-04-26T08:43:57.644Z,63.02
2023-04-26T08:44:57.664Z,61.96
2023-04-26T08:45:57.601Z,62.37
2023-04-26T08:46:57.640Z,63.09
2023-04-26T08:47:57.636Z,61.55
2023-04-26T08:48:57.584Z,60.31
2023-04-26T08:49:57.559Z,61.04
2023-04-26T08:50:57.557Z,59.59
2023-04-26T08:51:57.561Z,60.73
2023-04-26T08:52:57.584Z,59.08
2023-04-26T08:53:57.513Z,57.78
2023-04-26T08:54:57.623Z,58.70
2023-04-26T08:55:57.527Z,59.52
2023-04-26T08:56:57.576Z,61.24
2023-04-26T08:57:57.456Z,61.35
2023-04-26T08:58:57.447Z,59.39
2023-04-26T08:59:57.434Z,60.21
2023-04-26T09:00:57.422Z,61.44
2023-04-26T09:01:57.446Z,62.27
2023-04-26T09:02:57.457Z,60.39
2023-04-26T09:03:58.034Z,60.29
2023-04-26T09:04:57.428Z,60.80
2023-04-26T09:05:57.360Z,62.31
2023-04-26T09:06:57.356Z,59.95
2023-04-26T09:07:57.338Z,60.26
2023-04-26T09:08:57.325Z,55.74
2023-04-26T09:09:57.314Z,55.95
2023-04-26T09:10:57.285Z,53.72
2023-04-26T09:11:57.268Z,54.15
2023-04-26T09:12:57.277Z,55.90
2023-04-26T09:13:57.256Z,56.10
2023-04-26T09:14:57.238Z,56.72
2023-04-26T09:15:57.237Z,55.49
2023-04-26T09:16:57.198Z,55.59
2023-04-26T09:17:57.271Z,53.94
2023-04-26T09:18:57.227Z,55.38
2023-04-26T09:19:57.157Z,54.25
2023-04-26T09:20:57.142Z,56.28
2023-04-26T09:21:57.157Z,58.03
2023-04-26T09:22:57.129Z,58.34
2023-04-26T09:23:57.216Z,57.49
2023-04-26T09:24:57.087Z,56.05
2023-04-26T09:25:57.134Z,56.87
2023-04-26T09:26:57.072Z,56.54
2023-04-26T09:27:57.079Z,54.08
2023-04-26T09:28:57.037Z,53.77
2023-04-26T09:29:57.036Z,52.33
2023-04-26T09:30:57.041Z,54.59
2023-04-26T09:31:57.073Z,53.15
2023-04-26T09:32:57.091Z,52.02
2023-04-26T09:33:57.016Z,56.54
2023-04-26T09:34:56.962Z,53.97
2023-04-26T09:35:56.929Z,53.66
2023-04-26T09:36:57.054Z,52.33
2023-04-26T09:37:59.551Z,51.61
2023-04-26T09:38:57.889Z,52.74
2023-04-26T09:39:56.922Z,52.23
2023-04-26T09:40:56.902Z,52.23
2023-04-26T09:41:56.864Z,53.46
2023-04-26T09:42:56.861Z,53.15
2023-04-26T09:43:56.839Z,52.36
2023-04-26T09:44:56.815Z,52.56
2023-04-26T09:45:56.874Z,52.56
2023-04-26T09:46:56.843Z,53.28
2023-04-26T09:47:56.855Z,52.46
2023-04-26T09:48:56.784Z,53.08
2023-04-26T09:49:56.771Z,54.61
2023-04-26T09:50:56.731Z,55.13
2023-04-26T09:51:56.732Z,53.38
2023-04-26T09:52:56.728Z,54.10
2023-04-26T09:53:56.845Z,53.89
2023-04-26T09:54:56.706Z,54.10
2023-04-26T09:55:56.671Z,55.13
2023-04-26T09:56:56.650Z,54.00
2023-04-26T09:57:56.665Z,53.59
2023-04-26T09:58:56.638Z,52.79
2023-04-26T09:59:56.632Z,52.89
2023-04-26T10:00:56.668Z,52.79
2023-04-26T10:01:56.583Z,52.89
2023-04-26T10:02:56.680Z,54.64
2023-04-26T10:03:56.794Z,53.00
2023-04-26T10:04:56.654Z,52.89
2023-04-26T10:05:56.537Z,52.79
2023-04-26T10:06:56.518Z,53.92
2023-04-26T10:07:56.524Z,55.57
2023-04-26T10:08:56.671Z,56.28
2023-04-26T10:09:56.467Z,56.08
2023-04-26T10:10:56.462Z,55.66
2023-04-26T10:11:56.458Z,55.74
2023-04-26T10:12:56.459Z,55.85
2023-04-26T10:13:56.429Z,54.21
2023-04-26T10:14:56.414Z,53.17
2023-04-26T10:15:56.416Z,53.38
2023-04-26T10:16:56.499Z,53.08
2023-04-26T10:17:56.400Z,52.23
2023-04-26T10:18:56.392Z,52.23
2023-04-26T10:19:56.384Z,52.12
2023-04-26T10:20:56.328Z,52.54
2023-04-26T10:21:56.313Z,51.61
2023-04-26T10:22:56.303Z,52.20
2023-04-26T10:23:56.303Z,52.41
2023-04-26T10:24:56.256Z,52.82
2023-04-26T10:25:56.271Z,53.23
2023-04-26T10:26:56.240Z,54.23
2023-04-26T10:27:56.234Z,56.18
2023-04-26T10:29:01.365Z,56.15
2023-04-26T10:29:57.328Z,53.59
2023-04-26T10:30:56.216Z,53.69
2023-04-26T10:31:56.272Z,55.43
2023-04-26T10:32:56.220Z,55.92
2023-04-26T10:33:56.171Z,56.43
2023-04-26T10:34:56.173Z,52.87
2023-04-26T10:35:56.117Z,52.15
2023-04-26T10:36:56.117Z,52.47
2023-04-26T10:37:56.094Z,54.31
2023-04-26T10:38:56.101Z,54.10
2023-04-26T10:39:56.073Z,51.64
2023-04-26T10:40:56.059Z,51.85
2023-04-26T10:41:56.042Z,51.56
2023-04-26T10:42:56.023Z,52.49
2023-04-26T10:43:56.357Z,52.36
2023-04-26T10:44:56.154Z,52.36
2023-04-26T10:45:56.018Z,51.85
2023-04-26T10:46:55.994Z,54.61
2023-04-26T10:47:55.978Z,52.26
2023-04-26T10:48:55.967Z,52.05
2023-04-26T10:49:55.935Z,52.77
2023-04-26T10:50:55.924Z,53.69
2023-04-26T10:51:55.924Z,55.13
2023-04-26T10:52:55.897Z,53.46
2023-04-26T10:53:56.003Z,54.79
2023-04-26T10:54:55.861Z,53.64
2023-04-26T10:55:55.876Z,55.79
2023-04-26T10:56:55.850Z,53.44
2023-04-26T10:57:55.841Z,54.03
2023-04-26T10:58:55.834Z,50.55
2023-04-26T10:59:55.816Z,50.65
2023-04-26T11:00:55.855Z,51.67
2023-04-26T11:01:55.799Z,52.59
2023-04-26T11:02:55.948Z,52.49
2023-04-26T11:03:56.284Z,51.57
2023-04-26T11:04:55.755Z,51.98
2023-04-26T11:05:55.822Z,48.19
2023-04-26T11:06:55.775Z,48.32
2023-04-26T11:07:55.697Z,49.65
2023-04-26T11:08:55.810Z,50.88
2023-04-26T11:09:55.691Z,50.57
2023-04-26T11:10:55.802Z,50.57
2023-04-26T11:11:55.709Z,49.14
2023-04-26T11:12:55.625Z,48.85
2023-04-26T11:13:55.642Z,49.67
2023-04-26T11:14:55.593Z,52.13
2023-04-26T11:15:55.626Z,52.85
2023-04-26T11:16:55.599Z,53.36
2023-04-26T11:17:55.592Z,52.54
2023-04-26T11:19:02.817Z,53.05
2023-04-26T11:19:55.525Z,51.21
2023-04-26T11:20:55.514Z,51.42
2023-04-26T11:21:56.257Z,52.13
2023-04-26T11:22:55.504Z,52.92
2023-04-26T11:23:55.526Z,52.72
2023-04-26T11:24:55.450Z,53.64
2023-04-26T11:25:55.468Z,49.96
2023-04-26T11:26:55.428Z,49.34
2023-04-26T11:27:55.435Z,51.80
2023-04-26T11:28:55.485Z,51.59
2023-04-26T11:29:55.478Z,50.16
2023-04-26T11:30:55.413Z,52.11
2023-04-26T11:31:55.484Z,50.45
2023-04-26T11:32:55.406Z,48.52
2023-04-26T11:33:55.338Z,49.34
2023-04-26T11:34:55.325Z,49.65
2023-04-26T11:35:55.332Z,48.73
2023-04-26T11:36:55.292Z,47.81
2023-04-26T11:37:55.287Z,51.21
2023-04-26T11:38:55.283Z,49.88
2023-04-26T11:39:55.258Z,50.80
2023-04-26T11:40:55.235Z,50.88
2023-04-26T11:41:55.245Z,49.67
2023-04-26T11:42:55.227Z,48.63
2023-04-26T11:43:55.262Z,48.11
2023-04-26T11:44:55.200Z,48.01
2023-04-26T11:45:55.174Z,47.91
2023-04-26T11:46:55.196Z,47.91
2023-04-26T11:47:55.215Z,47.58
2023-04-26T11:48:55.471Z,47.48
2023-04-26T11:49:55.122Z,49.93
2023-04-26T11:50:55.140Z,46.23
2023-04-26T11:51:55.088Z,46.44
2023-04-26T11:52:55.107Z,65.12
2023-04-26T11:53:55.076Z,71.80
2023-04-26T11:54:55.059Z,61.05
2023-04-26T11:55:55.045Z,67.65
2023-04-26T11:56:55.025Z,66.39
2023-04-26T11:57:55.032Z,52.60
2023-04-26T11:58:55.393Z,65.92
2023-04-26T11:59:54.986Z,64.20
2023-04-26T12:00:54.966Z,47.99
2023-04-26T12:01:55.011Z,60.83
2023-04-26T12:02:55.148Z,57.37
2023-04-26T12:03:55.116Z,59.20
2023-04-26T12:04:54.997Z,62.94
2023-04-26T12:05:54.911Z,49.70
2023-04-26T12:06:54.902Z,59.99
2023-04-26T12:07:54.889Z,57.92
2023-04-26T12:08:54.867Z,53.75
2023-04-26T12:09:54.869Z,55.15
2023-04-26T12:10:54.865Z,57.56
2023-04-26T12:11:54.819Z,54.11
2023-04-26T12:12:54.839Z,49.45
2023-04-26T12:13:54.804Z,52.53
2023-04-26T12:14:54.789Z,46.93
2023-04-26T12:15:54.777Z,48.25
2023-04-26T12:16:54.793Z,55.38
2023-04-26T12:17:54.797Z,51.31
2023-04-26T12:18:54.747Z,47.97
2023-04-26T12:19:54.715Z,51.53
2023-04-26T12:20:54.706Z,56.73
2023-04-26T12:21:54.699Z,50.52
2023-04-26T12:22:54.702Z,46.14
2023-04-26T12:23:54.682Z,58.15
2023-04-26T12:24:54.658Z,55.89
2023-04-26T12:25:54.647Z,47.24
2023-04-26T12:26:54.651Z,48.25
2023-04-26T12:27:54.639Z,56.09
2023-04-26T12:28:54.616Z,49.65
2023-04-26T12:29:54.620Z,54.24
2023-04-26T12:30:54.584Z,56.55
2023-04-26T12:31:54.586Z,54.41
2023-04-26T12:33:00.042Z,52.45
2023-04-26T12:33:55.530Z,50.52
2023-04-26T12:34:54.541Z,49.91
2023-04-26T12:35:54.517Z,53.47
2023-04-26T12:36:54.490Z,49.79
2023-04-26T12:37:54.565Z,45.46
2023-04-26T12:38:54.471Z,51.54
2023-04-26T12:39:54.439Z,50.95
2023-04-26T12:40:54.431Z,50.85
2023-04-26T12:41:54.436Z,48.21
2023-04-26T12:42:54.412Z,48.41
2023-04-26T12:43:54.455Z,52.76
2023-04-26T12:44:54.421Z,49.20
2023-04-26T12:45:54.424Z,46.76
2023-04-26T12:46:54.376Z,42.92
2023-04-26T12:47:54.380Z,43.24
2023-04-26T12:48:54.325Z,43.26
2023-04-26T12:49:54.356Z,48.38
2023-04-26T12:50:54.320Z,51.84
2023-04-26T12:51:54.298Z,52.12